createdAt,value
2022-12-02T00:00:52.514Z,20.37
2022-12-02T00:03:23.695Z,19.83
2022-12-02T00:05:55.146Z,19.17
2022-12-02T00:08:24.991Z,18.70
2022-12-02T00:10:55.046Z,19.03
2022-12-02T00:13:27.980Z,19.87
2022-12-02T00:15:57.908Z,18.73
2022-12-02T00:18:28.187Z,17.37
2022-12-02T00:20:56.672Z,18.10
2022-12-02T00:23:25.233Z,16.70
2022-12-02T00:25:54.582Z,16.63
2022-12-02T00:28:22.792Z,16.27
2022-12-02T00:30:50.751Z,15.50
2022-12-02T00:33:19.550Z,15.60
2022-12-02T00:35:48.646Z,14.97
2022-12-02T00:38:16.617Z,14.33
2022-12-02T00:40:44.549Z,14.80
2022-12-02T00:43:30.191Z,13.33
2022-12-02T00:46:16.562Z,14.50
2022-12-02T00:48:44.492Z,13.07
2022-12-02T00:51:13.545Z,12.97
2022-12-02T00:53:41.444Z,13.30
2022-12-02T00:56:09.209Z,13.87
2022-12-02T00:58:37.015Z,13.50
2022-12-02T01:01:04.882Z,13.60
2022-12-02T01:03:32.778Z,12.97
2022-12-02T01:06:00.490Z,13.83
2022-12-02T01:08:30.652Z,13.53
2022-12-02T01:10:59.109Z,13.67
2022-12-02T01:13:28.168Z,12.63
2022-12-02T01:15:56.307Z,14.03
2022-12-02T01:18:24.264Z,13.67
2022-12-02T01:20:52.335Z,14.50
2022-12-02T01:23:20.212Z,13.90
2022-12-02T01:25:49.804Z,14.00
2022-12-02T01:28:18.181Z,14.27
2022-12-02T01:30:46.600Z,15.10
2022-12-02T01:33:14.529Z,12.63
2022-12-02T01:35:42.340Z,14.00
2022-12-02T01:38:10.108Z,13.77
2022-12-02T01:40:38.573Z,14.37
2022-12-02T01:43:08.053Z,15.00
2022-12-02T01:45:35.850Z,13.73
2022-12-02T01:48:05.899Z,13.83
2022-12-02T01:50:34.213Z,13.57
2022-12-02T01:53:02.136Z,15.37
2022-12-02T01:55:30.956Z,14.30
2022-12-02T01:57:59.507Z,14.27
2022-12-02T02:00:29.724Z,14.77
2022-12-02T02:02:58.400Z,14.23
2022-12-02T02:05:29.212Z,15.07
2022-12-02T02:07:59.607Z,15.97
2022-12-02T02:10:28.947Z,16.33
2022-12-02T02:12:58.777Z,16.30
2022-12-02T02:15:28.465Z,15.00
2022-12-02T02:17:59.564Z,15.90
2022-12-02T02:20:32.036Z,16.60
2022-12-02T02:23:11.729Z,17.23
2022-12-02T02:25:46.563Z,17.03
2022-12-02T02:28:16.679Z,15.97
2022-12-02T02:30:45.585Z,16.33
2022-12-02T02:33:15.541Z,17.83
2022-12-02T02:35:44.610Z,17.53
2022-12-02T02:38:16.614Z,16.20
2022-12-02T02:40:46.806Z,18.13
2022-12-02T02:43:18.094Z,17.50
2022-12-02T02:45:46.654Z,18.40
2022-12-02T02:48:16.719Z,18.77
2022-12-02T02:50:47.106Z,17.50
2022-12-02T02:53:20.867Z,19.37
2022-12-02T02:55:49.482Z,18.40
2022-12-02T02:58:20.233Z,17.57
2022-12-02T03:00:54.418Z,19.23
2022-12-02T03:03:25.133Z,19.27
2022-12-02T03:05:55.886Z,19.87
2022-12-02T03:08:26.600Z,19.10
2022-12-02T03:10:56.862Z,19.27
2022-12-02T03:13:24.897Z,19.20
2022-12-02T03:15:53.398Z,19.33
2022-12-02T03:18:21.693Z,17.87
2022-12-02T03:20:49.757Z,17.80
2022-12-02T03:23:17.872Z,19.20
2022-12-02T03:25:46.990Z,19.33
2022-12-02T03:28:15.213Z,18.87
2022-12-02T03:30:43.369Z,18.13
2022-12-02T03:33:11.292Z,18.50
2022-12-02T03:35:39.217Z,18.60
2022-12-02T03:38:07.006Z,19.93
2022-12-02T03:40:34.881Z,17.80
2022-12-02T03:43:04.375Z,19.00
2022-12-02T03:45:33.445Z,19.23
2022-12-02T03:48:01.747Z,18.60
2022-12-02T03:50:29.700Z,20.93
2022-12-02T03:52:57.565Z,18.93
2022-12-02T03:55:25.344Z,18.17
2022-12-02T03:57:53.101Z,19.43
2022-12-02T04:00:22.917Z,21.23
2022-12-02T04:02:51.114Z,18.37
2022-12-02T04:05:19.036Z,18.77
2022-12-02T04:07:46.855Z,18.83
2022-12-02T04:10:14.748Z,17.80
2022-12-02T04:12:42.531Z,18.93
2022-12-02T04:15:11.058Z,18.40
2022-12-02T04:17:40.221Z,17.67
2022-12-02T04:20:09.797Z,18.50
2022-12-02T04:22:37.519Z,19.17
2022-12-02T04:25:05.853Z,18.07
2022-12-02T04:27:33.578Z,18.87
2022-12-02T04:30:01.283Z,19.20
2022-12-02T04:32:29.074Z,19.17
2022-12-02T04:34:58.146Z,17.83
2022-12-02T04:37:26.892Z,19.83
2022-12-02T04:39:54.704Z,19.70
2022-12-02T04:42:22.459Z,18.73
2022-12-02T04:44:50.669Z,19.23
2022-12-02T04:47:18.591Z,19.47
2022-12-02T04:49:46.296Z,19.30
2022-12-02T04:52:15.475Z,18.97
2022-12-02T04:54:43.285Z,18.47
2022-12-02T04:57:11.032Z,18.93
2022-12-02T04:59:38.990Z,17.73
2022-12-02T05:02:06.806Z,18.93
2022-12-02T05:04:40.246Z,19.43
2022-12-02T05:07:09.134Z,20.83
2022-12-02T05:09:38.305Z,20.40
2022-12-02T05:12:06.386Z,19.27
2022-12-02T05:14:34.126Z,19.60
2022-12-02T05:17:01.903Z,20.60
2022-12-02T05:19:29.744Z,19.73
2022-12-02T05:21:57.693Z,19.93
2022-12-02T05:24:25.431Z,21.40
2022-12-02T05:26:54.495Z,20.20
2022-12-02T05:29:22.265Z,20.57
2022-12-02T05:31:50.169Z,22.50
2022-12-02T05:34:17.945Z,21.57
2022-12-02T05:36:45.764Z,20.10
2022-12-02T05:39:13.479Z,20.30
2022-12-02T05:41:41.717Z,21.40
2022-12-02T05:44:20.401Z,21.00
2022-12-02T05:46:48.579Z,21.43
2022-12-02T05:49:19.462Z,23.47
2022-12-02T05:51:50.740Z,21.80
2022-12-02T05:54:21.735Z,21.07
2022-12-02T05:56:50.252Z,22.30
2022-12-02T05:59:21.286Z,21.70
2022-12-02T06:01:51.731Z,21.03
2022-12-02T06:04:21.946Z,21.70
2022-12-02T06:06:50.200Z,20.87
2022-12-02T06:09:21.383Z,21.97
2022-12-02T06:11:49.453Z,21.27
2022-12-02T06:14:21.083Z,20.73
2022-12-02T06:16:54.950Z,21.33
2022-12-02T06:19:30.945Z,21.53
2022-12-02T06:22:02.127Z,20.20
2022-12-02T06:24:33.851Z,21.27
2022-12-02T06:27:04.333Z,20.33
2022-12-02T06:29:34.057Z,21.83
2022-12-02T06:32:07.504Z,21.30
2022-12-02T06:34:39.546Z,22.83
2022-12-02T06:37:16.036Z,21.00
2022-12-02T06:40:11.843Z,20.97
2022-12-02T06:42:36.723Z,20.83
2022-12-02T06:45:16.267Z,21.20
2022-12-02T06:48:07.139Z,22.83
2022-12-02T06:50:42.914Z,20.00
2022-12-02T06:53:29.852Z,21.13
2022-12-02T06:56:01.833Z,20.07
2022-12-02T06:58:35.601Z,22.03
2022-12-02T07:01:25.390Z,20.40
2022-12-02T07:04:26.789Z,21.07
2022-12-02T07:06:59.240Z,22.00
2022-12-02T07:09:38.043Z,21.03
2022-12-02T07:12:13.558Z,21.40
2022-12-02T07:14:46.089Z,21.97
2022-12-02T07:17:27.047Z,22.77
2022-12-02T07:20:02.102Z,22.63
2022-12-02T07:22:35.648Z,22.93
2022-12-02T07:25:29.417Z,22.50
2022-12-02T07:27:57.301Z,20.60
2022-12-02T07:30:28.851Z,22.70
2022-12-02T07:32:58.364Z,22.00
2022-12-02T07:35:26.376Z,24.13
2022-12-02T07:37:54.800Z,21.73
2022-12-02T07:40:22.556Z,23.10
2022-12-02T07:42:50.626Z,23.37
2022-12-02T07:45:20.915Z,23.37
2022-12-02T07:47:50.813Z,23.60
2022-12-02T07:50:20.179Z,20.90
2022-12-02T07:52:47.929Z,23.47
2022-12-02T07:55:15.705Z,24.90
2022-12-02T07:57:43.397Z,24.40
2022-12-02T08:00:12.190Z,23.47
2022-12-02T08:02:40.057Z,24.40
2022-12-02T08:05:08.708Z,23.20
2022-12-02T08:07:37.864Z,24.27
2022-12-02T08:10:06.750Z,24.40
2022-12-02T08:12:34.445Z,25.07
2022-12-02T08:15:02.161Z,23.07
2022-12-02T08:17:29.998Z,23.53
2022-12-02T08:19:57.757Z,24.03
2022-12-02T08:22:25.538Z,25.07
2022-12-02T08:24:55.512Z,24.50
2022-12-02T08:27:23.430Z,24.67
2022-12-02T08:29:52.347Z,24.03
2022-12-02T08:32:21.258Z,23.43
2022-12-02T08:34:49.219Z,22.33
2022-12-02T08:37:17.237Z,22.30
2022-12-02T08:39:45.003Z,22.03
2022-12-02T08:42:14.070Z,20.23
2022-12-02T08:44:41.820Z,20.67
2022-12-02T08:47:09.662Z,20.60
2022-12-02T08:49:37.513Z,20.47
2022-12-02T08:52:05.255Z,22.10
2022-12-02T08:54:33.037Z,20.20
2022-12-02T08:57:00.731Z,20.93
2022-12-02T08:59:29.867Z,20.93
2022-12-02T09:01:57.719Z,21.70
2022-12-02T09:04:25.466Z,21.90
2022-12-02T09:06:53.180Z,21.07
2022-12-02T09:09:20.955Z,23.43
2022-12-02T09:11:48.701Z,23.30
2022-12-02T09:14:16.492Z,23.13
2022-12-02T09:16:45.665Z,24.07
2022-12-02T09:19:14.380Z,23.20
2022-12-02T09:21:42.122Z,23.77
2022-12-02T09:24:10.073Z,23.30
2022-12-02T09:26:38.023Z,24.53
2022-12-02T09:29:05.813Z,23.60
2022-12-02T09:31:33.542Z,23.17
2022-12-02T09:34:02.730Z,22.83
2022-12-02T09:36:30.440Z,22.23
2022-12-02T09:38:58.297Z,23.50
2022-12-02T09:41:27.249Z,22.67
2022-12-02T09:43:55.501Z,22.03
2022-12-02T09:46:24.910Z,20.97
2022-12-02T09:48:53.097Z,21.63
2022-12-02T09:51:22.315Z,21.97
2022-12-02T09:53:50.083Z,21.30
2022-12-02T09:56:19.469Z,21.20
2022-12-02T09:58:49.611Z,20.93
2022-12-02T10:01:17.897Z,22.67
2022-12-02T10:03:46.796Z,21.50
2022-12-02T10:06:24.395Z,20.50
2022-12-02T10:08:56.176Z,21.23
2022-12-02T10:11:27.246Z,21.87
2022-12-02T10:13:56.317Z,21.50
2022-12-02T10:16:24.361Z,21.03
2022-12-02T10:18:52.223Z,22.40
2022-12-02T10:21:19.930Z,22.03
2022-12-02T10:23:57.950Z,19.97
2022-12-02T10:26:26.930Z,20.50
2022-12-02T10:29:06.653Z,19.57
2022-12-02T10:31:34.674Z,20.40
2022-12-02T10:34:04.341Z,20.50
2022-12-02T10:36:34.855Z,20.80
2022-12-02T10:39:34.307Z,18.97
2022-12-02T10:42:16.848Z,19.90
2022-12-02T10:44:46.435Z,20.63
2022-12-02T10:47:23.995Z,20.10
2022-12-02T10:49:55.492Z,20.10
2022-12-02T10:52:28.407Z,19.43
2022-12-02T10:54:59.529Z,19.60
2022-12-02T10:57:30.957Z,19.47
2022-12-02T11:00:00.941Z,20.13
2022-12-02T11:02:33.830Z,19.57
2022-12-02T11:05:14.488Z,19.87
2022-12-02T11:07:42.410Z,20.93
2022-12-02T11:10:21.328Z,21.07
2022-12-02T11:13:01.827Z,21.67
2022-12-02T11:15:42.492Z,20.03
2022-12-02T11:18:12.545Z,20.10
2022-12-02T11:20:42.791Z,20.67
2022-12-02T11:23:26.447Z,20.03
2022-12-02T11:26:07.509Z,19.63
2022-12-02T11:28:49.978Z,19.90
2022-12-02T11:31:21.670Z,21.07
2022-12-02T11:34:26.512Z,19.70
2022-12-02T11:37:33.466Z,20.33
2022-12-02T11:40:02.797Z,18.53
2022-12-02T11:42:32.784Z,20.40
2022-12-02T11:45:35.120Z,19.70
2022-12-02T11:48:03.985Z,19.13
2022-12-02T11:50:40.260Z,20.50
2022-12-02T11:53:16.917Z,18.07
2022-12-02T11:55:47.721Z,19.23
2022-12-02T11:58:21.022Z,18.30
2022-12-02T12:01:01.965Z,19.43
2022-12-02T12:03:29.788Z,18.90
2022-12-02T12:06:10.224Z,19.50
2022-12-02T12:08:39.136Z,18.57
2022-12-02T12:11:22.329Z,18.40
2022-12-02T12:14:06.409Z,17.53
2022-12-02T12:16:36.521Z,17.07
2022-12-02T12:19:24.967Z,18.20
2022-12-02T12:21:55.166Z,17.50
2022-12-02T12:24:33.465Z,17.80
2022-12-02T12:27:13.830Z,17.03
2022-12-02T12:29:42.927Z,15.70
2022-12-02T12:32:11.397Z,16.30
2022-12-02T12:34:39.378Z,17.60
2022-12-02T12:37:07.188Z,18.33
2022-12-02T12:39:34.981Z,17.73
2022-12-02T12:42:02.870Z,16.50
2022-12-02T12:44:32.657Z,16.70
2022-12-02T12:47:04.226Z,15.80
2022-12-02T12:49:34.870Z,17.23
2022-12-02T12:52:08.721Z,17.47
2022-12-02T12:54:36.925Z,18.07
2022-12-02T12:57:04.749Z,16.10
2022-12-02T12:59:32.502Z,16.17
2022-12-02T13:02:00.371Z,17.70
2022-12-02T13:04:29.591Z,17.57
2022-12-02T13:06:57.433Z,17.10
2022-12-02T13:09:25.180Z,16.63
2022-12-02T13:11:52.965Z,17.07
2022-12-02T13:14:20.891Z,17.03
2022-12-02T13:16:48.669Z,16.83
2022-12-02T13:19:16.504Z,16.67
2022-12-02T13:21:45.653Z,16.40
2022-12-02T13:24:15.988Z,16.33
2022-12-02T13:26:43.932Z,17.90
2022-12-02T13:29:11.680Z,17.23
2022-12-02T13:31:39.508Z,17.10
2022-12-02T13:34:07.352Z,17.90
2022-12-02T13:36:35.072Z,16.73
2022-12-02T13:39:06.746Z,17.93
2022-12-02T13:41:34.677Z,17.43
2022-12-02T13:44:02.408Z,18.20
2022-12-02T13:46:30.348Z,18.13
2022-12-02T13:48:58.224Z,17.47
2022-12-02T13:51:26.068Z,18.53
2022-12-02T13:53:58.820Z,17.57
2022-12-02T13:56:29.213Z,17.60
2022-12-02T13:58:57.032Z,18.07
2022-12-02T14:01:25.027Z,16.00
2022-12-02T14:03:52.795Z,17.70
2022-12-02T14:06:20.747Z,17.33
2022-12-02T14:08:48.564Z,18.73
2022-12-02T14:11:19.150Z,17.03
2022-12-02T14:13:53.441Z,16.90
2022-12-02T14:16:21.503Z,17.53
2022-12-02T14:18:55.454Z,16.83
2022-12-02T14:21:24.796Z,17.47
2022-12-02T14:23:52.816Z,17.27
2022-12-02T14:26:20.582Z,16.47
2022-12-02T14:28:49.694Z,16.87
2022-12-02T14:31:25.411Z,16.77
2022-12-02T14:36:44.038Z,16.40
2022-12-02T14:39:12.528Z,16.03
2022-12-02T14:41:42.692Z,16.23
2022-12-02T14:44:13.376Z,17.70
2022-12-02T14:46:45.552Z,17.07
2022-12-02T14:52:01.266Z,17.47
2022-12-02T14:54:29.021Z,17.37
2022-12-02T14:56:56.855Z,17.87
2022-12-02T14:59:26.098Z,17.70
2022-12-02T15:01:53.986Z,17.93
2022-12-02T15:04:21.813Z,17.67
2022-12-02T15:06:49.755Z,19.13
2022-12-02T15:09:17.682Z,17.63
2022-12-02T15:11:48.528Z,17.23
2022-12-02T15:14:16.267Z,17.00
2022-12-02T15:16:49.028Z,18.33
2022-12-02T15:19:16.777Z,17.30
2022-12-02T15:21:47.349Z,16.10
2022-12-02T15:24:15.134Z,16.67
2022-12-02T15:26:43.138Z,16.27
2022-12-02T15:29:10.875Z,16.37
2022-12-02T15:31:38.691Z,16.70
2022-12-02T15:34:07.853Z,16.87
2022-12-02T15:36:35.632Z,16.30
2022-12-02T15:39:03.440Z,15.80
2022-12-02T15:41:31.317Z,16.30
2022-12-02T15:43:59.030Z,16.27
2022-12-02T15:46:26.980Z,15.90
2022-12-02T15:48:54.759Z,15.00
2022-12-02T15:51:25.153Z,13.73
2022-12-02T15:53:52.947Z,13.37
2022-12-02T15:56:20.768Z,11.97
2022-12-02T15:58:50.207Z,12.77
2022-12-02T16:01:18.273Z,11.83
2022-12-02T16:03:46.111Z,11.23
2022-12-02T16:06:16.664Z,10.47
2022-12-02T16:08:49.688Z,11.00
2022-12-02T16:11:23.544Z,10.73
2022-12-02T16:13:52.529Z,10.27
2022-12-02T16:16:20.465Z,9.83
2022-12-02T16:18:49.464Z,11.00
2022-12-02T16:21:19.993Z,10.93
2022-12-02T16:23:49.238Z,10.40
2022-12-02T16:26:17.056Z,10.60
2022-12-02T16:28:46.792Z,9.83
2022-12-02T16:31:14.619Z,9.23
2022-12-02T16:33:43.118Z,10.23
2022-12-02T16:36:11.136Z,9.80
2022-12-02T16:38:39.008Z,9.43
2022-12-02T16:41:10.283Z,15.20
2022-12-02T16:43:46.594Z,9.67
2022-12-02T16:46:14.381Z,10.20
2022-12-02T16:48:42.206Z,9.07
2022-12-02T16:51:09.939Z,9.60
2022-12-02T16:53:37.620Z,10.17
2022-12-02T16:56:05.383Z,10.00
2022-12-02T16:58:34.536Z,9.90
2022-12-02T17:01:02.360Z,11.93
2022-12-02T17:03:30.179Z,12.03
2022-12-02T17:05:58.038Z,11.57
2022-12-02T17:08:25.760Z,12.57
2022-12-02T17:10:53.744Z,13.60
2022-12-02T17:13:21.477Z,12.77
2022-12-02T17:15:50.617Z,13.10
2022-12-02T17:18:18.368Z,11.47
2022-12-02T17:20:49.784Z,11.93
2022-12-02T17:23:20.114Z,12.57
2022-12-02T17:25:47.838Z,13.17
2022-12-02T17:28:15.572Z,12.37
2022-12-02T17:30:43.352Z,11.97
2022-12-02T17:33:12.497Z,12.10
2022-12-02T17:35:40.310Z,11.90
2022-12-02T17:38:08.098Z,12.27
2022-12-02T17:40:35.888Z,12.73
2022-12-02T17:43:03.762Z,12.70
2022-12-02T17:45:31.647Z,13.43
2022-12-02T17:47:59.418Z,11.87
2022-12-02T17:50:28.587Z,12.77
2022-12-02T17:52:56.418Z,12.43
2022-12-02T17:55:24.262Z,12.40
2022-12-02T17:57:52.077Z,12.33
2022-12-02T18:00:20.353Z,12.13
2022-12-02T18:02:48.194Z,12.23
2022-12-02T18:05:16.040Z,13.27
2022-12-02T18:07:45.258Z,12.50
2022-12-02T18:10:13.061Z,12.80
2022-12-02T18:12:40.838Z,11.53
2022-12-02T18:15:10.564Z,12.80
2022-12-02T18:17:38.281Z,12.53
2022-12-02T18:20:07.458Z,12.90
2022-12-02T18:22:35.323Z,12.90
2022-12-02T18:25:05.178Z,13.97
2022-12-02T18:27:32.965Z,12.90
2022-12-02T18:30:00.649Z,12.83
2022-12-02T18:32:28.342Z,14.53
2022-12-02T18:34:56.148Z,14.67
2022-12-02T18:37:23.964Z,14.30
2022-12-02T18:39:51.649Z,13.93
2022-12-02T18:42:20.808Z,15.27
2022-12-02T18:44:48.703Z,15.47
2022-12-02T18:47:16.552Z,15.40
2022-12-02T18:49:44.319Z,15.07
2022-12-02T18:52:12.374Z,16.13
2022-12-02T18:54:40.179Z,15.80
2022-12-02T18:57:07.898Z,14.97
2022-12-02T18:59:37.103Z,15.17
2022-12-02T19:02:05.199Z,15.80
2022-12-02T19:04:33.107Z,15.47
2022-12-02T19:07:00.863Z,15.87
2022-12-02T19:09:28.777Z,14.53
2022-12-02T19:11:56.575Z,14.13
2022-12-02T19:14:24.439Z,15.73
2022-12-02T19:16:53.603Z,13.20
2022-12-02T19:19:21.475Z,13.97
2022-12-02T19:21:49.258Z,13.57
2022-12-02T19:24:17.076Z,14.13
2022-12-02T19:26:44.847Z,13.83
2022-12-02T19:29:12.734Z,12.90
2022-12-02T19:31:44.141Z,12.87
2022-12-02T19:34:14.368Z,13.53
2022-12-02T19:36:42.125Z,13.40
2022-12-02T19:39:09.836Z,12.43
2022-12-02T19:41:37.567Z,13.07
2022-12-02T19:44:05.593Z,12.53
2022-12-02T19:46:33.428Z,12.03
2022-12-02T19:49:01.319Z,13.13
2022-12-02T19:51:30.458Z,12.20
2022-12-02T19:53:58.660Z,13.10
2022-12-02T19:56:27.143Z,12.77
2022-12-02T19:58:58.046Z,12.90
2022-12-02T20:01:26.008Z,13.07
2022-12-02T20:03:53.828Z,12.63
2022-12-02T20:06:21.729Z,12.47
2022-12-02T20:08:50.830Z,13.07
2022-12-02T20:11:18.514Z,13.87
2022-12-02T20:13:46.373Z,13.23
2022-12-02T20:16:14.803Z,12.97
2022-12-02T20:18:42.663Z,12.40
2022-12-02T20:21:14.670Z,12.40
2022-12-02T20:23:42.775Z,12.73
2022-12-02T20:26:11.887Z,12.40
2022-12-02T20:28:39.655Z,12.70
2022-12-02T20:31:07.366Z,12.10
2022-12-02T20:33:35.164Z,11.30
2022-12-02T20:36:02.901Z,12.17
2022-12-02T20:38:31.587Z,11.93
2022-12-02T20:40:59.408Z,12.03
2022-12-02T20:43:28.654Z,11.27
2022-12-02T20:45:56.435Z,12.57
2022-12-02T20:48:24.204Z,11.20
2022-12-02T20:50:51.992Z,10.77
2022-12-02T20:53:19.762Z,10.97
2022-12-02T20:55:47.453Z,10.60
2022-12-02T20:58:15.238Z,11.20
2022-12-02T21:00:44.531Z,10.67
2022-12-02T21:03:12.245Z,11.10
2022-12-02T21:05:39.938Z,10.27
2022-12-02T21:08:07.783Z,10.27
2022-12-02T21:10:35.604Z,10.77
2022-12-02T21:13:05.014Z,10.13
2022-12-02T21:15:36.095Z,9.93
2022-12-02T21:18:05.577Z,10.70
2022-12-02T21:20:34.736Z,11.53
2022-12-02T21:23:04.971Z,10.43
2022-12-02T21:25:32.856Z,10.23
2022-12-02T21:28:00.913Z,9.97
2022-12-02T21:30:28.845Z,10.37
2022-12-02T21:32:56.674Z,10.13
2022-12-02T21:35:25.794Z,10.47
2022-12-02T21:37:53.654Z,9.00
2022-12-02T21:40:21.420Z,10.03
2022-12-02T21:42:49.214Z,9.50
2022-12-02T21:45:17.127Z,10.03
2022-12-02T21:47:45.021Z,9.37
2022-12-02T21:50:13.561Z,9.50
2022-12-02T21:52:42.632Z,9.60
2022-12-02T21:55:10.749Z,8.97
2022-12-02T21:57:38.445Z,9.27
2022-12-02T22:00:07.754Z,9.47
2022-12-02T22:02:40.442Z,9.47
2022-12-02T22:05:08.970Z,9.13
2022-12-02T22:07:43.417Z,9.37
2022-12-02T22:10:16.606Z,9.33
2022-12-02T22:12:45.032Z,9.20
2022-12-02T22:15:14.291Z,8.10
2022-12-02T22:17:42.348Z,9.10
2022-12-02T22:20:11.902Z,9.57
2022-12-02T22:22:39.709Z,9.43
2022-12-02T22:25:09.335Z,9.07
2022-12-02T22:27:38.435Z,8.77
2022-12-02T22:30:07.952Z,8.93
2022-12-02T22:32:35.694Z,9.70
2022-12-02T22:35:03.468Z,9.27
2022-12-02T22:37:31.271Z,9.33
2022-12-02T22:39:59.011Z,9.57
2022-12-02T22:42:26.774Z,8.83
2022-12-02T22:44:56.084Z,9.37
2022-12-02T22:47:23.970Z,8.57
2022-12-02T22:49:51.752Z,10.07
2022-12-02T22:52:19.701Z,8.73
2022-12-02T22:54:47.442Z,9.33
2022-12-02T22:57:15.194Z,9.47
2022-12-02T22:59:43.398Z,9.60
2022-12-02T23:02:17.031Z,9.00
2022-12-02T23:04:45.426Z,9.40
2022-12-02T23:07:13.196Z,8.93
2022-12-02T23:09:40.945Z,9.80
2022-12-02T23:12:08.722Z,8.70
2022-12-02T23:14:36.446Z,9.40
2022-12-02T23:17:04.232Z,9.83
2022-12-02T23:19:33.293Z,10.17
2022-12-02T23:22:01.005Z,10.03
2022-12-02T23:24:28.752Z,9.53
2022-12-02T23:26:56.460Z,9.70
2022-12-02T23:29:24.195Z,9.70
2022-12-02T23:31:51.870Z,10.93
2022-12-02T23:34:19.663Z,9.43
2022-12-02T23:36:48.721Z,9.43
2022-12-02T23:39:16.505Z,9.07
2022-12-02T23:41:44.247Z,8.80
2022-12-02T23:44:12.006Z,9.07
2022-12-02T23:46:39.753Z,8.97
2022-12-02T23:49:07.619Z,8.27
2022-12-02T23:51:35.266Z,8.40
2022-12-02T23:54:04.725Z,8.70
2022-12-02T23:56:32.402Z,8.37
2022-12-02T23:59:00.696Z,8.23
